createdAt,value
2023-05-20T00:00:49.301Z,3.22
2023-05-20T00:03:17.000Z,3.17
2023-05-20T00:05:43.851Z,3.40
2023-05-20T00:08:11.156Z,3.47
2023-05-20T00:10:37.967Z,3.03
2023-05-20T00:13:04.742Z,3.53
2023-05-20T00:15:32.664Z,3.57
2023-05-20T00:18:01.697Z,3.40
2023-05-20T00:20:28.819Z,3.67
2023-05-20T00:22:55.296Z,3.40
2023-05-20T00:25:22.013Z,3.35
2023-05-20T00:27:48.523Z,3.30
2023-05-20T00:30:15.029Z,2.95
2023-05-20T00:32:41.506Z,3.00
2023-05-20T00:35:08.772Z,3.13
2023-05-20T00:37:35.317Z,3.30
2023-05-20T00:40:01.830Z,3.30
2023-05-20T00:42:28.959Z,3.45
2023-05-20T00:44:56.193Z,3.20
2023-05-20T00:47:28.725Z,3.05
2023-05-20T00:49:55.762Z,3.65
2023-05-20T00:52:22.451Z,3.53
2023-05-20T00:54:50.124Z,3.13
2023-05-20T00:57:17.207Z,3.17
2023-05-20T00:59:44.861Z,3.58
2023-05-20T01:02:11.934Z,3.42
2023-05-20T01:04:38.516Z,3.77
2023-05-20T01:07:06.583Z,2.90
2023-05-20T01:09:33.485Z,3.03
2023-05-20T01:12:09.711Z,3.35
2023-05-20T01:15:00.382Z,3.42
2023-05-20T01:17:31.263Z,3.57
2023-05-20T01:19:59.559Z,3.28
2023-05-20T01:22:27.218Z,3.03
2023-05-20T01:24:53.820Z,3.00
2023-05-20T01:27:22.612Z,3.78
2023-05-20T01:29:51.022Z,3.30
2023-05-20T01:32:24.828Z,3.85
2023-05-20T01:34:52.957Z,3.22
2023-05-20T01:37:20.019Z,3.33
2023-05-20T01:39:49.238Z,3.60
2023-05-20T01:42:16.886Z,3.30
2023-05-20T01:44:43.974Z,3.58
2023-05-20T01:47:10.752Z,3.30
2023-05-20T01:49:37.225Z,3.78
2023-05-20T01:52:04.381Z,3.47
2023-05-20T01:54:31.015Z,3.40
2023-05-20T01:56:57.446Z,3.25
2023-05-20T01:59:23.874Z,3.90
2023-05-20T02:01:50.707Z,3.63
2023-05-20T02:04:19.114Z,3.25
2023-05-20T02:06:46.050Z,3.70
2023-05-20T02:09:13.224Z,3.70
2023-05-20T02:11:39.766Z,2.95
2023-05-20T02:14:06.358Z,3.92
2023-05-20T02:16:32.937Z,3.17
2023-05-20T02:18:59.416Z,3.80
2023-05-20T02:21:26.004Z,3.35
2023-05-20T02:23:52.463Z,3.38
2023-05-20T02:26:20.530Z,3.80
2023-05-20T02:28:50.543Z,3.75
2023-05-20T02:31:17.720Z,3.77
2023-05-20T02:33:44.897Z,3.17
2023-05-20T02:36:11.398Z,3.97
2023-05-20T02:38:37.843Z,3.70
2023-05-20T02:41:04.693Z,3.65
2023-05-20T02:43:32.804Z,3.63
2023-05-20T02:45:59.295Z,4.18
2023-05-20T02:48:25.817Z,3.70
2023-05-20T02:50:53.129Z,4.10
2023-05-20T02:53:19.571Z,3.60
2023-05-20T02:55:49.954Z,3.33
2023-05-20T02:58:17.310Z,3.28
2023-05-20T03:00:43.890Z,3.30
2023-05-20T03:03:10.694Z,3.75
2023-05-20T03:05:37.698Z,4.00
2023-05-20T03:08:09.658Z,3.90
2023-05-20T03:10:37.651Z,4.00
2023-05-20T03:13:08.615Z,3.83
2023-05-20T03:15:36.143Z,4.10
2023-05-20T03:18:02.835Z,4.03
2023-05-20T03:20:30.017Z,4.27
2023-05-20T03:22:56.849Z,3.65
2023-05-20T03:25:24.949Z,3.63
2023-05-20T03:27:51.554Z,3.72
2023-05-20T03:30:18.092Z,4.15
2023-05-20T03:32:44.897Z,3.77
2023-05-20T03:35:11.532Z,4.20
2023-05-20T03:37:38.050Z,4.45
2023-05-20T03:40:07.823Z,3.90
2023-05-20T03:42:34.678Z,4.00
2023-05-20T03:45:01.227Z,4.00
2023-05-20T03:47:28.323Z,4.13
2023-05-20T03:49:55.049Z,4.50
2023-05-20T03:52:21.581Z,4.10
2023-05-20T03:54:48.122Z,3.70
2023-05-20T03:57:14.981Z,4.17
2023-05-20T03:59:41.881Z,4.07
2023-05-20T04:02:09.716Z,3.80
2023-05-20T04:04:36.568Z,4.07
2023-05-20T04:07:05.941Z,4.38
2023-05-20T04:09:32.411Z,3.97
2023-05-20T04:11:58.955Z,3.75
2023-05-20T04:14:25.394Z,4.00
2023-05-20T04:16:52.527Z,4.53
2023-05-20T04:19:24.203Z,4.05
2023-05-20T04:21:50.773Z,4.00
2023-05-20T04:24:17.223Z,4.10
2023-05-20T04:26:43.698Z,3.72
2023-05-20T04:29:10.130Z,4.07
2023-05-20T04:31:36.628Z,4.38
2023-05-20T04:34:03.114Z,3.90
2023-05-20T04:36:30.696Z,4.25
2023-05-20T04:38:57.397Z,3.60
2023-05-20T04:41:24.269Z,4.25
2023-05-20T04:43:50.723Z,3.92
2023-05-20T04:46:17.271Z,3.97
2023-05-20T04:48:48.099Z,4.38
2023-05-20T04:51:14.533Z,3.97
2023-05-20T04:53:40.975Z,3.83
2023-05-20T04:56:08.252Z,3.97
2023-05-20T04:58:35.458Z,3.63
2023-05-20T05:01:02.645Z,3.97
2023-05-20T05:03:29.402Z,3.95
2023-05-20T05:05:57.237Z,3.90
2023-05-20T05:08:23.835Z,4.05
2023-05-20T05:10:50.437Z,3.53
2023-05-20T05:13:16.981Z,4.07
2023-05-20T05:15:43.479Z,3.95
2023-05-20T05:18:09.978Z,3.88
2023-05-20T05:20:36.591Z,3.95
2023-05-20T05:23:03.230Z,3.23
2023-05-20T05:25:29.693Z,3.80
2023-05-20T05:27:56.243Z,3.90
2023-05-20T05:30:22.762Z,3.88
2023-05-20T05:32:49.246Z,3.85
2023-05-20T05:35:16.068Z,2.77
2023-05-20T05:37:42.574Z,4.10
2023-05-20T05:40:09.418Z,3.67
2023-05-20T05:42:35.909Z,4.10
2023-05-20T05:45:02.355Z,4.07
2023-05-20T05:47:32.549Z,3.70
2023-05-20T05:50:00.245Z,4.30
2023-05-20T05:52:27.159Z,3.78
2023-05-20T05:54:54.682Z,3.75
2023-05-20T05:57:21.181Z,3.58
2023-05-20T05:59:47.664Z,4.37
2023-05-20T06:02:14.919Z,3.20
2023-05-20T06:04:41.719Z,3.83
2023-05-20T06:07:08.313Z,3.28
2023-05-20T06:09:35.170Z,3.30
2023-05-20T06:12:02.539Z,3.40
2023-05-20T06:14:29.209Z,2.90
2023-05-20T06:16:55.814Z,3.08
2023-05-20T06:19:22.370Z,3.40
2023-05-20T06:21:48.962Z,3.10
2023-05-20T06:24:16.076Z,3.20
2023-05-20T06:26:42.762Z,3.25
2023-05-20T06:29:09.279Z,2.80
2023-05-20T06:31:35.794Z,3.05
2023-05-20T06:34:02.271Z,2.75
2023-05-20T06:36:29.717Z,3.13
2023-05-20T06:38:56.734Z,3.15
2023-05-20T06:41:23.188Z,3.38
2023-05-20T06:43:51.771Z,3.35
2023-05-20T06:46:19.736Z,2.55
2023-05-20T06:48:46.231Z,3.20
2023-05-20T06:51:12.633Z,3.10
2023-05-20T06:53:39.051Z,2.70
2023-05-20T06:56:05.920Z,3.20
2023-05-20T06:58:32.876Z,2.80
2023-05-20T07:00:59.292Z,2.90
2023-05-20T07:03:26.144Z,3.30
2023-05-20T07:05:52.862Z,2.35
2023-05-20T07:08:19.572Z,2.55
2023-05-20T07:10:46.786Z,3.00
2023-05-20T07:13:13.226Z,2.50
2023-05-20T07:15:39.656Z,2.60
2023-05-20T07:18:06.565Z,2.42
2023-05-20T07:20:33.068Z,2.20
2023-05-20T07:22:59.701Z,2.88
2023-05-20T07:25:26.268Z,2.30
2023-05-20T07:27:52.768Z,2.38
2023-05-20T07:30:19.377Z,2.45
2023-05-20T07:32:45.848Z,2.40
2023-05-20T07:35:12.354Z,2.40
2023-05-20T07:37:38.778Z,1.97
2023-05-20T07:40:07.218Z,2.88
2023-05-20T07:42:34.289Z,1.92
2023-05-20T07:45:00.762Z,2.30
2023-05-20T07:47:27.276Z,2.08
2023-05-20T07:49:53.797Z,1.93
2023-05-20T07:52:20.228Z,1.90
2023-05-20T07:54:46.662Z,2.00
2023-05-20T07:57:13.223Z,1.85
2023-05-20T07:59:39.667Z,1.77
2023-05-20T08:02:07.053Z,1.90
2023-05-20T08:04:33.625Z,1.75
2023-05-20T08:07:00.197Z,1.63
2023-05-20T08:09:26.812Z,1.80
2023-05-20T08:11:53.284Z,1.60
2023-05-20T08:14:19.731Z,1.30
2023-05-20T08:16:46.250Z,1.70
2023-05-20T08:19:12.859Z,1.58
2023-05-20T08:21:39.567Z,1.80
2023-05-20T08:24:06.450Z,1.83
2023-05-20T08:26:33.065Z,1.70
2023-05-20T08:28:59.527Z,1.23
2023-05-20T08:31:26.291Z,1.25
2023-05-20T08:33:53.173Z,1.50
2023-05-20T08:36:21.138Z,1.63
2023-05-20T08:38:47.965Z,1.63
2023-05-20T08:41:14.476Z,1.80
2023-05-20T08:43:41.337Z,1.40
2023-05-20T08:46:08.984Z,1.38
2023-05-20T08:48:35.906Z,1.60
2023-05-20T08:51:04.153Z,1.77
2023-05-20T08:53:30.931Z,1.83
2023-05-20T08:56:02.850Z,1.70
2023-05-20T08:58:30.253Z,1.80
2023-05-20T09:00:56.787Z,1.92
2023-05-20T09:03:24.388Z,1.70
2023-05-20T09:05:54.478Z,1.48
2023-05-20T09:08:27.199Z,1.67
2023-05-20T09:10:54.521Z,1.45
2023-05-20T09:13:23.625Z,1.60
2023-05-20T09:15:50.528Z,1.50
2023-05-20T09:18:17.245Z,1.65
2023-05-20T09:20:47.390Z,1.70
2023-05-20T09:23:23.832Z,1.80
2023-05-20T09:25:56.544Z,1.92
2023-05-20T09:28:26.967Z,1.70
2023-05-20T09:30:58.789Z,1.65
2023-05-20T09:33:34.166Z,1.50
2023-05-20T09:36:03.495Z,1.73
2023-05-20T09:38:37.799Z,1.73
2023-05-20T09:41:08.282Z,1.83
2023-05-20T09:43:38.667Z,2.00
2023-05-20T09:46:05.798Z,1.45
2023-05-20T09:48:36.224Z,1.77
2023-05-20T09:51:04.417Z,1.80
2023-05-20T09:53:31.475Z,1.50
2023-05-20T09:55:58.331Z,2.00
2023-05-20T09:58:25.480Z,2.80
2023-05-20T10:00:53.913Z,1.88
2023-05-20T10:03:24.902Z,1.92
2023-05-20T10:06:10.651Z,1.50
2023-05-20T10:08:47.122Z,1.50
2023-05-20T10:11:26.971Z,1.90
2023-05-20T10:14:15.573Z,1.50
2023-05-20T10:16:54.311Z,1.90
2023-05-20T10:19:35.429Z,1.60
2023-05-20T10:22:07.209Z,1.60
2023-05-20T10:24:34.712Z,2.10
2023-05-20T10:27:03.607Z,2.05
2023-05-20T10:32:27.974Z,1.93
2023-05-20T10:35:17.979Z,1.50
2023-05-20T10:37:47.528Z,2.05
2023-05-20T10:40:15.913Z,1.58
2023-05-20T10:42:42.897Z,1.60
2023-05-20T10:45:47.339Z,1.93
2023-05-20T10:48:27.481Z,1.58
2023-05-20T10:50:57.227Z,1.75
2023-05-20T10:53:38.501Z,1.52
2023-05-20T10:56:05.643Z,1.98
2023-05-20T10:58:39.380Z,1.70
2023-05-20T11:01:06.177Z,1.67
2023-05-20T11:03:33.507Z,1.60
2023-05-20T11:06:00.011Z,1.38
2023-05-20T11:08:33.418Z,1.70
2023-05-20T11:10:59.865Z,1.27
2023-05-20T11:13:26.804Z,1.88
2023-05-20T11:15:53.540Z,1.50
2023-05-20T11:18:20.082Z,1.70
2023-05-20T11:20:47.354Z,1.60
2023-05-20T11:23:18.273Z,1.63
2023-05-20T11:25:44.728Z,1.75
2023-05-20T11:28:16.522Z,1.40
2023-05-20T11:30:43.296Z,1.73
2023-05-20T11:33:13.430Z,2.08
2023-05-20T11:35:53.009Z,1.80
2023-05-20T11:38:20.722Z,1.65
2023-05-20T11:40:52.030Z,1.88
2023-05-20T11:43:19.408Z,1.70
2023-05-20T11:45:47.980Z,1.60
2023-05-20T11:48:17.385Z,2.00
2023-05-20T11:50:45.500Z,1.70
2023-05-20T11:53:19.861Z,1.70
2023-05-20T11:55:50.405Z,1.45
2023-05-20T11:58:19.295Z,1.52
2023-05-20T12:00:53.285Z,1.90
2023-05-20T12:03:23.770Z,2.10
2023-05-20T12:05:51.331Z,1.80
2023-05-20T12:08:22.064Z,1.85
2023-05-20T12:10:56.258Z,1.80
2023-05-20T12:13:23.841Z,1.43
2023-05-20T12:15:50.628Z,1.60
2023-05-20T12:18:17.158Z,1.67
2023-05-20T12:20:43.692Z,1.35
2023-05-20T12:23:10.332Z,1.67
2023-05-20T12:25:36.762Z,1.50
2023-05-20T12:28:03.606Z,1.50
2023-05-20T12:30:30.046Z,1.60
2023-05-20T12:32:56.964Z,1.83
2023-05-20T12:35:40.460Z,1.60
2023-05-20T12:38:07.463Z,1.67
2023-05-20T12:40:35.617Z,1.70
2023-05-20T12:43:03.637Z,1.88
2023-05-20T12:45:30.151Z,1.60
2023-05-20T12:47:59.205Z,1.70
2023-05-20T12:50:26.058Z,1.40
2023-05-20T12:52:53.061Z,1.27
2023-05-20T12:55:19.605Z,1.35
2023-05-20T12:57:47.353Z,1.58
2023-05-20T13:00:14.462Z,1.60
2023-05-20T13:02:45.213Z,1.57
2023-05-20T13:05:12.356Z,1.73
2023-05-20T13:07:39.412Z,1.63
2023-05-20T13:10:07.902Z,1.48
2023-05-20T13:12:35.403Z,2.28
2023-05-20T13:15:02.072Z,1.60
2023-05-20T13:17:28.601Z,1.70
2023-05-20T13:19:55.476Z,1.70
2023-05-20T13:22:22.567Z,1.60
2023-05-20T13:24:49.051Z,1.65
2023-05-20T13:27:15.603Z,1.90
2023-05-20T13:29:45.404Z,1.70
2023-05-20T13:32:11.895Z,1.80
2023-05-20T13:34:39.409Z,1.83
2023-05-20T13:37:08.570Z,1.40
2023-05-20T13:39:43.411Z,1.40
2023-05-20T13:42:18.897Z,1.60
2023-05-20T13:44:45.344Z,1.60
2023-05-20T13:47:11.826Z,1.80
2023-05-20T13:49:38.251Z,1.50
2023-05-20T13:52:05.133Z,1.57
2023-05-20T13:54:31.581Z,1.85
2023-05-20T13:56:58.036Z,1.60
2023-05-20T13:59:24.474Z,1.60
2023-05-20T14:01:50.938Z,1.70
2023-05-20T14:04:17.418Z,1.70
2023-05-20T14:06:43.885Z,1.52
2023-05-20T14:09:10.861Z,1.60
2023-05-20T14:11:37.430Z,1.40
2023-05-20T14:14:03.972Z,1.40
2023-05-20T14:16:31.216Z,1.80
2023-05-20T14:18:57.719Z,1.70
2023-05-20T14:21:30.130Z,1.80
2023-05-20T14:23:58.644Z,1.50
2023-05-20T14:26:25.062Z,1.50
2023-05-20T14:28:52.168Z,1.40
2023-05-20T14:31:18.618Z,1.20
2023-05-20T14:33:49.468Z,1.50
2023-05-20T14:36:16.003Z,1.38
2023-05-20T14:38:42.413Z,1.50
2023-05-20T14:41:08.827Z,1.40
2023-05-20T14:43:36.655Z,1.45
2023-05-20T14:46:03.929Z,1.45
2023-05-20T14:48:30.561Z,1.80
2023-05-20T14:50:56.998Z,1.35
2023-05-20T14:53:23.644Z,1.80
2023-05-20T14:55:50.197Z,1.40
2023-05-20T14:58:16.787Z,1.88
2023-05-20T15:00:43.445Z,1.65
2023-05-20T15:03:10.129Z,1.63
2023-05-20T15:05:36.857Z,1.60
2023-05-20T15:08:03.781Z,1.50
2023-05-20T15:10:30.221Z,1.40
2023-05-20T15:12:56.745Z,1.60
2023-05-20T15:15:23.254Z,1.83
2023-05-20T15:17:49.719Z,1.70
2023-05-20T15:20:16.270Z,1.83
2023-05-20T15:22:47.901Z,1.30
2023-05-20T15:25:14.557Z,1.50
2023-05-20T15:27:42.276Z,1.67
2023-05-20T15:30:09.688Z,1.70
2023-05-20T15:32:36.466Z,1.50
2023-05-20T15:35:04.230Z,1.50
2023-05-20T15:37:30.829Z,1.50
2023-05-20T15:39:57.277Z,1.63
2023-05-20T15:42:24.725Z,1.50
2023-05-20T15:44:51.330Z,1.60
2023-05-20T15:47:17.781Z,1.40
2023-05-20T15:49:44.253Z,1.80
2023-05-20T15:52:10.729Z,2.15
2023-05-20T15:54:37.157Z,1.90
2023-05-20T15:57:03.803Z,1.30
2023-05-20T15:59:30.236Z,1.52
2023-05-20T16:01:56.731Z,1.98
2023-05-20T16:04:23.344Z,1.60
2023-05-20T16:06:49.949Z,1.60
2023-05-20T16:09:16.607Z,1.75
2023-05-20T16:11:46.365Z,1.90
2023-05-20T16:14:12.835Z,1.83
2023-05-20T16:16:39.502Z,1.98
2023-05-20T16:19:10.438Z,1.77
2023-05-20T16:21:36.937Z,2.40
2023-05-20T16:24:03.583Z,2.00
2023-05-20T16:26:31.504Z,2.08
2023-05-20T16:28:58.001Z,1.75
2023-05-20T16:31:24.533Z,1.80
2023-05-20T16:33:51.084Z,1.80
2023-05-20T16:36:17.525Z,1.60
2023-05-20T16:38:43.936Z,1.55
2023-05-20T16:41:10.503Z,1.30
2023-05-20T16:43:37.068Z,1.50
2023-05-20T16:46:03.544Z,1.60
2023-05-20T16:48:30.005Z,1.20
2023-05-20T16:50:56.587Z,2.10
2023-05-20T16:53:23.075Z,1.50
2023-05-20T16:55:49.474Z,1.67
2023-05-20T16:58:16.049Z,1.40
2023-05-20T17:00:42.507Z,1.02
2023-05-20T17:03:09.173Z,1.60
2023-05-20T17:05:35.966Z,1.55
2023-05-20T17:08:02.442Z,1.40
2023-05-20T17:10:29.541Z,1.55
2023-05-20T17:12:56.059Z,1.65
2023-05-20T17:15:23.661Z,1.60
2023-05-20T17:17:50.654Z,2.10
2023-05-20T17:20:17.241Z,2.10
2023-05-20T17:22:43.750Z,2.20
2023-05-20T17:25:10.366Z,1.65
2023-05-20T17:27:36.801Z,1.50
2023-05-20T17:30:04.363Z,1.58
2023-05-20T17:32:41.455Z,1.93
2023-05-20T17:35:08.766Z,1.85
2023-05-20T17:37:35.670Z,1.60
2023-05-20T17:40:02.247Z,1.58
2023-05-20T17:42:28.801Z,1.58
2023-05-20T17:44:55.573Z,1.90
2023-05-20T17:47:22.065Z,2.58
2023-05-20T17:49:48.545Z,2.10
2023-05-20T17:52:15.095Z,1.83
2023-05-20T17:54:41.645Z,1.42
2023-05-20T17:57:08.093Z,1.60
2023-05-20T17:59:36.669Z,1.70
2023-05-20T18:02:06.332Z,1.60
2023-05-20T18:04:32.907Z,1.80
2023-05-20T18:06:59.505Z,1.63
2023-05-20T18:09:25.922Z,1.90
2023-05-20T18:11:52.394Z,1.77
2023-05-20T18:14:22.770Z,1.38
2023-05-20T18:16:49.663Z,1.60
2023-05-20T18:19:16.322Z,1.80
2023-05-20T18:21:42.779Z,1.70
2023-05-20T18:24:09.280Z,1.25
2023-05-20T18:26:35.851Z,1.77
2023-05-20T18:29:02.388Z,1.35
2023-05-20T18:31:29.016Z,1.80
2023-05-20T18:33:55.564Z,1.90
2023-05-20T18:36:22.051Z,1.38
2023-05-20T18:38:48.619Z,1.50
2023-05-20T18:41:15.056Z,1.33
2023-05-20T18:43:41.485Z,1.80
2023-05-20T18:46:07.995Z,1.80
2023-05-20T18:48:34.528Z,3.55
2023-05-20T18:51:00.979Z,2.80
2023-05-20T18:53:27.475Z,2.20
2023-05-20T18:55:55.555Z,2.03
2023-05-20T18:58:22.065Z,1.37
2023-05-20T19:00:48.586Z,1.50
2023-05-20T19:03:15.122Z,1.70
2023-05-20T19:05:41.621Z,1.70
2023-05-20T19:08:09.318Z,1.70
2023-05-20T19:10:35.882Z,1.70
2023-05-20T19:13:02.363Z,1.80
2023-05-20T19:15:31.110Z,1.70
2023-05-20T19:17:57.581Z,1.70
2023-05-20T19:20:24.053Z,1.52
2023-05-20T19:22:50.551Z,2.20
2023-05-20T19:25:17.045Z,1.60
2023-05-20T19:27:43.486Z,1.67
2023-05-20T19:30:11.259Z,2.00
2023-05-20T19:32:38.798Z,1.90
2023-05-20T19:35:06.174Z,2.07
2023-05-20T19:37:33.004Z,1.50
2023-05-20T19:39:59.450Z,1.90
2023-05-20T19:42:25.912Z,1.95
2023-05-20T19:44:53.528Z,1.88
2023-05-20T19:47:20.059Z,2.20
2023-05-20T19:49:46.635Z,1.90
2023-05-20T19:52:13.065Z,1.90
2023-05-20T19:54:41.048Z,1.58
2023-05-20T19:57:07.526Z,2.00
2023-05-20T19:59:33.979Z,1.90
2023-05-20T20:02:02.853Z,1.80
2023-05-20T20:04:30.435Z,1.95
2023-05-20T20:06:56.920Z,2.40
2023-05-20T20:09:23.363Z,2.00
2023-05-20T20:11:49.775Z,2.17
2023-05-20T20:14:16.213Z,2.10
2023-05-20T20:16:48.633Z,2.45
2023-05-20T20:19:22.840Z,2.00
2023-05-20T20:21:52.203Z,2.40
2023-05-20T20:24:19.407Z,2.10
2023-05-20T20:26:47.429Z,2.13
2023-05-20T20:29:15.048Z,2.08
2023-05-20T20:31:41.734Z,2.10
2023-05-20T20:34:08.286Z,2.40
2023-05-20T20:36:34.902Z,1.80
2023-05-20T20:39:04.661Z,2.50
2023-05-20T20:41:32.153Z,2.90
2023-05-20T20:43:59.491Z,2.70
2023-05-20T20:46:27.632Z,4.25
2023-05-20T20:48:54.280Z,4.17
2023-05-20T20:51:20.751Z,4.10
2023-05-20T20:53:48.123Z,2.97
2023-05-20T20:56:14.554Z,3.00
2023-05-20T20:58:41.288Z,2.65
2023-05-20T21:01:09.900Z,2.50
2023-05-20T21:03:40.175Z,3.22
2023-05-20T21:06:08.057Z,3.40
2023-05-20T21:08:34.756Z,2.90
2023-05-20T21:11:01.441Z,2.80
2023-05-20T21:13:28.764Z,2.70
2023-05-20T21:15:55.514Z,2.53
2023-05-20T21:18:23.659Z,2.80
2023-05-20T21:20:51.254Z,3.15
2023-05-20T21:23:18.750Z,2.65
2023-05-20T21:25:45.399Z,2.60
2023-05-20T21:28:12.067Z,3.00
2023-05-20T21:30:38.536Z,2.28
2023-05-20T21:33:04.997Z,2.60
2023-05-20T21:35:31.461Z,2.85
2023-05-20T21:37:58.213Z,2.60
2023-05-20T21:40:24.641Z,4.70
2023-05-20T21:42:51.085Z,5.93
2023-05-20T21:45:17.687Z,5.38
2023-05-20T21:47:46.179Z,3.97
2023-05-20T21:50:12.769Z,3.13
2023-05-20T21:52:42.103Z,3.50
2023-05-20T21:55:09.736Z,3.38
2023-05-20T21:57:36.579Z,3.33
2023-05-20T22:00:09.540Z,3.42
2023-05-20T22:02:36.389Z,3.17
2023-05-20T22:05:04.504Z,3.10
2023-05-20T22:07:30.937Z,2.90
2023-05-20T22:09:57.435Z,1.88
2023-05-20T22:12:23.852Z,2.50
2023-05-20T22:14:50.299Z,2.67
2023-05-20T22:17:17.851Z,2.50
2023-05-20T22:19:44.281Z,2.45
2023-05-20T22:22:11.229Z,2.47
2023-05-20T22:24:37.658Z,2.80
2023-05-20T22:27:04.514Z,3.20
2023-05-20T22:29:32.442Z,3.70
2023-05-20T22:31:59.291Z,3.50
2023-05-20T22:34:26.075Z,2.65
2023-05-20T22:36:53.929Z,2.58
2023-05-20T22:39:20.997Z,2.20
2023-05-20T22:41:47.456Z,2.58
2023-05-20T22:44:14.022Z,2.10
2023-05-20T22:46:40.825Z,2.50
2023-05-20T22:49:07.277Z,2.35
2023-05-20T22:51:35.186Z,2.30
2023-05-20T22:54:01.645Z,2.63
2023-05-20T22:56:29.505Z,2.20
2023-05-20T22:58:55.941Z,2.35
2023-05-20T23:01:22.408Z,2.05
2023-05-20T23:03:49.148Z,2.20
2023-05-20T23:06:15.712Z,2.35
2023-05-20T23:08:43.002Z,2.20
2023-05-20T23:11:09.435Z,2.38
2023-05-20T23:13:35.830Z,2.40
2023-05-20T23:16:02.241Z,2.40
2023-05-20T23:18:28.680Z,2.03
2023-05-20T23:20:56.009Z,2.42
2023-05-20T23:23:30.612Z,2.30
2023-05-20T23:25:58.878Z,2.50
2023-05-20T23:28:25.445Z,2.40
2023-05-20T23:30:51.877Z,2.20
2023-05-20T23:33:22.892Z,2.30
2023-05-20T23:35:51.432Z,2.33
2023-05-20T23:38:18.191Z,2.67
2023-05-20T23:40:44.683Z,2.40
2023-05-20T23:43:11.131Z,2.60
2023-05-20T23:45:37.710Z,2.47
2023-05-20T23:48:09.921Z,2.40
2023-05-20T23:50:36.414Z,2.95
2023-05-20T23:53:02.826Z,2.30
2023-05-20T23:55:29.285Z,2.70
2023-05-20T23:57:55.879Z,2.83
